createdAt,value
2019-03-06T00:00:50.712Z,1.60
2019-03-06T00:03:38.853Z,1.47
2019-03-06T00:06:26.743Z,1.40
2019-03-06T00:09:15.178Z,1.30
2019-03-06T00:12:23.331Z,1.27
2019-03-06T00:15:11.952Z,1.20
2019-03-06T00:18:00.894Z,1.50
2019-03-06T00:20:49.442Z,1.33
2019-03-06T00:23:39.507Z,1.03
2019-03-06T00:26:28.459Z,1.23
2019-03-06T00:29:16.472Z,1.00
2019-03-06T00:32:04.607Z,1.20
2019-03-06T00:34:53.417Z,1.40
2019-03-06T00:37:41.156Z,1.20
2019-03-06T00:40:43.179Z,1.20
2019-03-06T00:43:31.351Z,1.20
2019-03-06T00:46:19.228Z,1.23
2019-03-06T00:49:07.795Z,1.50
2019-03-06T00:51:56.060Z,1.20
2019-03-06T00:54:44.038Z,1.20
2019-03-06T00:57:32.847Z,1.50
2019-03-06T01:00:24.850Z,1.30
2019-03-06T01:03:13.555Z,1.17
2019-03-06T01:06:01.825Z,1.17
2019-03-06T01:08:54.029Z,1.37
2019-03-06T01:11:43.178Z,1.33
2019-03-06T01:14:31.768Z,1.17
2019-03-06T01:17:20.069Z,1.27
2019-03-06T01:20:07.938Z,0.90
2019-03-06T01:22:56.059Z,1.07
2019-03-06T01:25:46.821Z,1.93
2019-03-06T01:28:35.201Z,1.20
2019-03-06T01:31:23.118Z,1.17
2019-03-06T01:34:48.085Z,1.20
2019-03-06T01:37:55.867Z,1.00
2019-03-06T01:40:54.591Z,1.23
2019-03-06T01:44:02.257Z,1.33
2019-03-06T01:46:52.941Z,1.23
2019-03-06T01:49:41.712Z,1.10
2019-03-06T01:52:29.424Z,1.20
2019-03-06T01:55:17.978Z,1.47
2019-03-06T01:58:05.753Z,1.50
2019-03-06T02:00:55.104Z,1.50
2019-03-06T02:03:43.154Z,1.53
2019-03-06T02:06:30.842Z,1.40
2019-03-06T02:09:20.248Z,1.80
2019-03-06T02:12:10.406Z,2.00
2019-03-06T02:14:57.923Z,2.30
2019-03-06T02:17:45.755Z,1.70
2019-03-06T02:20:33.389Z,1.87
2019-03-06T02:23:21.497Z,2.03
2019-03-06T02:26:09.424Z,1.67
2019-03-06T02:28:57.272Z,2.27
2019-03-06T02:31:45.426Z,1.77
2019-03-06T02:34:33.298Z,1.97
2019-03-06T02:37:27.042Z,1.50
2019-03-06T02:40:17.125Z,2.00
2019-03-06T02:43:04.937Z,1.80
2019-03-06T02:45:56.733Z,1.60
2019-03-06T02:48:47.469Z,2.10
2019-03-06T02:51:35.863Z,1.57
2019-03-06T02:54:26.245Z,1.60
2019-03-06T02:57:21.391Z,1.40
2019-03-06T03:00:28.369Z,1.27
2019-03-06T03:03:50.659Z,1.47
2019-03-06T03:06:44.946Z,1.20
2019-03-06T03:09:32.895Z,1.60
2019-03-06T03:12:20.462Z,0.97
2019-03-06T03:15:08.755Z,1.30
2019-03-06T03:17:56.468Z,1.30
2019-03-06T03:20:44.628Z,1.53
2019-03-06T03:23:32.981Z,2.00
2019-03-06T03:26:20.651Z,1.43
2019-03-06T03:29:08.452Z,1.53
2019-03-06T03:31:56.230Z,1.57
2019-03-06T03:34:44.312Z,2.10
2019-03-06T03:37:31.920Z,1.83
2019-03-06T03:40:20.136Z,2.10
2019-03-06T03:43:07.465Z,2.10
2019-03-06T03:45:55.015Z,2.07
2019-03-06T03:48:42.883Z,2.00
2019-03-06T03:51:30.544Z,2.00
2019-03-06T03:54:18.268Z,2.30
2019-03-06T03:57:06.256Z,1.90
2019-03-06T03:59:55.801Z,2.10
2019-03-06T04:02:43.130Z,2.40
2019-03-06T04:05:31.423Z,2.30
2019-03-06T04:08:18.957Z,2.20
2019-03-06T04:11:06.941Z,1.90
2019-03-06T04:13:54.920Z,2.30
2019-03-06T04:16:42.760Z,2.20
2019-03-06T04:19:30.675Z,2.50
2019-03-06T04:22:18.856Z,2.23
2019-03-06T04:25:06.929Z,2.60
2019-03-06T04:27:55.530Z,2.20
2019-03-06T04:30:43.717Z,2.53
2019-03-06T04:33:31.816Z,2.50
2019-03-06T04:36:19.499Z,2.50
2019-03-06T04:39:09.840Z,2.20
2019-03-06T04:41:57.921Z,2.27
2019-03-06T04:44:45.796Z,2.63
2019-03-06T04:47:33.652Z,2.57
2019-03-06T04:50:21.439Z,2.13
2019-03-06T04:53:09.827Z,2.67
2019-03-06T04:55:57.202Z,2.77
2019-03-06T04:58:45.097Z,2.90
2019-03-06T05:01:32.936Z,2.90
2019-03-06T05:04:21.005Z,2.67
2019-03-06T05:07:08.563Z,2.80
2019-03-06T05:09:57.022Z,2.80
2019-03-06T05:12:44.988Z,3.10
2019-03-06T05:15:33.262Z,2.47
2019-03-06T05:18:29.915Z,2.63
2019-03-06T05:21:17.882Z,2.80
2019-03-06T05:24:05.669Z,2.50
2019-03-06T05:26:53.283Z,3.30
2019-03-06T05:29:41.785Z,3.30
2019-03-06T05:32:30.984Z,3.30
2019-03-06T05:35:24.196Z,3.23
2019-03-06T05:38:20.909Z,3.17
2019-03-06T05:41:09.007Z,3.10
2019-03-06T05:43:57.165Z,2.70
2019-03-06T05:46:45.083Z,3.17
2019-03-06T05:49:33.153Z,2.73
2019-03-06T05:52:21.214Z,3.03
2019-03-06T05:55:09.733Z,2.63
2019-03-06T05:57:58.463Z,2.73
2019-03-06T06:00:46.859Z,2.63
2019-03-06T06:03:34.594Z,2.73
2019-03-06T06:06:22.564Z,2.83
2019-03-06T06:09:10.551Z,2.73
2019-03-06T06:11:58.958Z,2.30
2019-03-06T06:14:46.157Z,3.20
2019-03-06T06:17:34.034Z,3.73
2019-03-06T06:20:21.882Z,2.70
2019-03-06T06:23:47.421Z,3.20
2019-03-06T06:26:35.651Z,2.60
2019-03-06T06:29:23.322Z,3.07
2019-03-06T06:32:11.100Z,2.80
2019-03-06T06:34:59.253Z,2.40
2019-03-06T06:37:47.476Z,3.17
2019-03-06T06:40:35.819Z,3.13
2019-03-06T06:43:23.925Z,2.90
2019-03-06T06:46:11.437Z,2.80
2019-03-06T06:48:59.150Z,2.93
2019-03-06T06:52:05.947Z,2.83
2019-03-06T06:55:19.527Z,3.10
2019-03-06T06:58:31.384Z,3.00
2019-03-06T07:01:51.772Z,2.80
2019-03-06T07:05:01.523Z,3.57
2019-03-06T07:08:08.338Z,3.17
2019-03-06T07:11:13.918Z,2.97
2019-03-06T07:14:33.314Z,2.60
2019-03-06T07:17:45.458Z,3.13
2019-03-06T07:20:50.866Z,2.40
2019-03-06T07:24:00.111Z,2.53
2019-03-06T07:27:11.723Z,2.90
2019-03-06T07:30:21.179Z,2.40
2019-03-06T07:33:33.799Z,2.50
2019-03-06T07:36:40.034Z,2.60
2019-03-06T07:39:32.090Z,2.73
2019-03-06T07:42:37.102Z,2.47
2019-03-06T07:46:00.432Z,2.40
2019-03-06T07:49:06.790Z,2.83
2019-03-06T07:52:12.235Z,2.60
2019-03-06T07:55:31.526Z,2.47
2019-03-06T07:58:36.914Z,2.20
2019-03-06T08:01:26.367Z,2.37
2019-03-06T08:04:14.703Z,2.10
2019-03-06T08:07:21.216Z,1.97
2019-03-06T08:10:11.341Z,2.00
2019-03-06T08:13:21.510Z,1.80
2019-03-06T08:16:24.690Z,1.87
2019-03-06T08:19:19.108Z,2.00
2019-03-06T08:22:22.446Z,2.03
2019-03-06T08:25:35.142Z,1.90
2019-03-06T08:28:22.587Z,1.50
2019-03-06T08:31:28.118Z,1.70
2019-03-06T08:34:15.876Z,1.50
2019-03-06T08:37:03.835Z,1.60
2019-03-06T08:39:51.288Z,1.90
2019-03-06T08:42:39.259Z,1.60
2019-03-06T08:45:31.792Z,1.50
2019-03-06T08:48:29.351Z,1.50
2019-03-06T08:51:45.074Z,1.50
2019-03-06T08:54:41.967Z,1.40
2019-03-06T08:58:00.957Z,1.70
2019-03-06T09:01:06.264Z,1.37
2019-03-06T09:04:05.334Z,1.53
2019-03-06T09:07:09.788Z,1.93
2019-03-06T09:10:08.740Z,1.70
2019-03-06T09:13:06.438Z,1.97
2019-03-06T09:16:10.467Z,1.57
2019-03-06T09:19:15.892Z,1.30
2019-03-06T09:22:25.501Z,1.50
2019-03-06T09:25:38.903Z,1.60
2019-03-06T09:28:45.386Z,1.77
2019-03-06T09:31:47.425Z,1.53
2019-03-06T09:34:43.871Z,1.70
2019-03-06T09:37:53.440Z,1.60
2019-03-06T09:41:00.197Z,1.70
2019-03-06T09:44:16.752Z,1.60
2019-03-06T09:47:20.587Z,1.40
2019-03-06T10:01:28.726Z,1.50
2019-03-06T10:19:35.297Z,1.30
2019-03-06T10:22:27.354Z,1.20
2019-03-06T10:25:15.851Z,1.20
2019-03-06T10:31:46.595Z,1.60
2019-03-06T10:35:35.561Z,0.90
2019-03-06T11:16:04.076Z,1.00
2019-03-06T11:22:31.404Z,0.90
2019-03-06T11:25:18.313Z,1.03
2019-03-06T11:35:15.539Z,0.90
2019-03-06T11:56:43.304Z,0.70
2019-03-06T12:20:37.822Z,0.60
2019-03-06T12:23:29.813Z,0.60
2019-03-06T12:26:16.907Z,0.60
2019-03-06T12:54:04.663Z,0.73
2019-03-06T13:03:48.819Z,0.80
2019-03-06T13:13:35.515Z,0.53
2019-03-06T13:23:23.590Z,0.83
2019-03-06T13:26:12.034Z,0.60
2019-03-06T13:52:41.145Z,0.70
2019-03-06T13:55:28.183Z,0.60
2019-03-06T13:58:21.935Z,0.50
2019-03-06T14:05:07.726Z,0.60
2019-03-06T14:07:56.715Z,0.50
2019-03-06T14:10:42.995Z,0.60
2019-03-06T14:13:30.142Z,0.83
2019-03-06T14:16:17.125Z,0.80
2019-03-06T14:19:04.122Z,0.60
2019-03-06T14:21:51.578Z,0.57
2019-03-06T14:24:39.305Z,0.60
2019-03-06T14:27:26.781Z,0.60
2019-03-06T14:30:14.003Z,0.50
2019-03-06T14:33:00.902Z,0.77
2019-03-06T14:35:48.061Z,0.73
2019-03-06T14:38:35.000Z,0.80
2019-03-06T14:41:22.604Z,0.70
2019-03-06T14:44:10.065Z,0.70
2019-03-06T14:46:57.591Z,0.70
2019-03-06T14:49:44.847Z,0.50
2019-03-06T14:52:32.549Z,0.70
2019-03-06T14:55:20.044Z,0.40
2019-03-06T14:58:07.622Z,0.60
2019-03-06T15:00:55.119Z,0.70
2019-03-06T15:03:42.704Z,0.60
2019-03-06T15:06:30.209Z,0.70
2019-03-06T15:09:22.863Z,0.80
2019-03-06T15:12:09.794Z,0.70
2019-03-06T15:14:57.405Z,0.60
2019-03-06T15:17:45.067Z,0.60
2019-03-06T15:20:32.550Z,0.60
2019-03-06T15:23:19.763Z,0.90
2019-03-06T15:26:07.315Z,0.67
2019-03-06T15:28:54.903Z,0.60
2019-03-06T15:31:42.782Z,0.60
2019-03-06T15:34:30.291Z,0.70
2019-03-06T15:37:18.043Z,0.90
2019-03-06T15:40:05.504Z,0.70
2019-03-06T15:42:52.975Z,0.80
2019-03-06T15:45:40.541Z,0.60
2019-03-06T15:48:28.309Z,0.67
2019-03-06T15:51:15.472Z,0.60
2019-03-06T15:54:02.634Z,0.93
2019-03-06T15:56:50.003Z,0.63
2019-03-06T15:59:37.306Z,0.73
2019-03-06T16:02:25.017Z,0.83
2019-03-06T16:05:15.009Z,0.80
2019-03-06T16:08:02.702Z,0.80
2019-03-06T16:10:49.942Z,0.90
2019-03-06T16:13:36.944Z,1.17
2019-03-06T16:16:24.739Z,0.93
2019-03-06T16:19:12.398Z,0.90
2019-03-06T16:21:59.866Z,0.83
2019-03-06T16:24:47.274Z,0.90
2019-03-06T16:27:34.645Z,0.63
2019-03-06T16:30:22.230Z,1.00
2019-03-06T16:33:09.602Z,0.77
2019-03-06T16:35:57.206Z,0.80
2019-03-06T16:38:44.674Z,0.80
2019-03-06T16:41:32.201Z,0.70
2019-03-06T16:44:19.721Z,0.80
2019-03-06T16:47:07.178Z,0.63
2019-03-06T16:49:54.924Z,0.80
2019-03-06T16:52:42.438Z,0.87
2019-03-06T16:55:30.082Z,1.00
2019-03-06T16:58:17.426Z,0.80
2019-03-06T17:01:04.786Z,0.93
2019-03-06T17:03:52.466Z,1.00
2019-03-06T17:06:39.755Z,1.10
2019-03-06T17:09:27.379Z,1.10
2019-03-06T17:12:18.612Z,1.20
2019-03-06T17:15:05.251Z,0.90
2019-03-06T17:17:52.442Z,1.10
2019-03-06T17:20:40.203Z,2.83
2019-03-06T17:23:27.257Z,0.93
2019-03-06T17:26:14.523Z,1.10
2019-03-06T17:29:09.313Z,1.07
2019-03-06T17:31:56.190Z,1.20
2019-03-06T17:34:43.292Z,1.83
2019-03-06T17:37:30.536Z,1.20
2019-03-06T17:40:17.763Z,1.47
2019-03-06T17:43:05.928Z,1.67
2019-03-06T17:45:53.327Z,2.40
2019-03-06T17:48:40.947Z,1.00
2019-03-06T17:51:28.510Z,1.10
2019-03-06T17:54:15.950Z,1.07
2019-03-06T17:57:03.135Z,1.13
2019-03-06T17:59:50.778Z,1.00
2019-03-06T18:02:37.820Z,0.90
2019-03-06T18:05:25.445Z,0.90
2019-03-06T18:08:12.939Z,1.10
2019-03-06T18:11:00.480Z,1.10
2019-03-06T18:13:48.178Z,0.97
2019-03-06T18:16:37.179Z,1.00
2019-03-06T18:19:24.443Z,1.03
2019-03-06T18:22:12.085Z,1.27
2019-03-06T18:24:59.766Z,1.40
2019-03-06T18:27:47.210Z,1.60
2019-03-06T18:30:34.283Z,1.60
2019-03-06T18:33:21.373Z,1.20
2019-03-06T18:36:08.960Z,1.40
2019-03-06T18:38:55.968Z,1.93
2019-03-06T18:41:43.361Z,1.97
2019-03-06T18:44:30.671Z,1.63
2019-03-06T18:47:18.271Z,1.67
2019-03-06T18:50:06.003Z,1.40
2019-03-06T18:52:53.352Z,1.70
2019-03-06T18:55:41.091Z,1.60
2019-03-06T18:58:28.391Z,1.40
2019-03-06T19:01:15.964Z,1.83
2019-03-06T19:04:03.305Z,1.40
2019-03-06T19:06:50.277Z,1.43
2019-03-06T19:09:37.508Z,1.27
2019-03-06T19:12:24.495Z,1.50
2019-03-06T19:15:13.153Z,1.27
2019-03-06T19:18:00.687Z,1.70
2019-03-06T19:20:48.811Z,1.47
2019-03-06T19:23:35.995Z,1.83
2019-03-06T19:26:23.531Z,1.80
2019-03-06T19:29:10.590Z,1.80
2019-03-06T19:31:57.891Z,2.20
2019-03-06T19:34:45.258Z,2.40
2019-03-06T19:37:32.234Z,2.50
2019-03-06T19:40:19.958Z,2.77
2019-03-06T19:43:07.256Z,2.30
2019-03-06T19:45:54.883Z,2.50
2019-03-06T19:48:42.123Z,2.60
2019-03-06T19:51:29.674Z,2.53
2019-03-06T19:54:17.079Z,2.13
2019-03-06T19:57:04.440Z,2.30
2019-03-06T19:59:51.799Z,2.60
2019-03-06T20:02:39.018Z,2.70
2019-03-06T20:05:28.366Z,2.77
2019-03-06T20:08:15.529Z,2.50
2019-03-06T20:11:07.399Z,2.67
2019-03-06T20:13:54.771Z,2.83
2019-03-06T20:16:42.236Z,2.63
2019-03-06T20:19:29.640Z,3.10
2019-03-06T20:22:16.853Z,6.10
2019-03-06T20:25:03.964Z,3.67
2019-03-06T20:27:53.328Z,4.00
2019-03-06T20:30:40.016Z,3.98
2019-03-06T20:33:27.620Z,4.20
2019-03-06T20:36:15.419Z,3.20
2019-03-06T20:39:03.632Z,3.20
2019-03-06T20:41:51.107Z,3.50
2019-03-06T20:44:38.764Z,3.70
2019-03-06T20:47:25.729Z,4.50
2019-03-06T20:50:13.644Z,4.43
2019-03-06T20:53:00.712Z,3.57
2019-03-06T20:55:47.862Z,4.37
2019-03-06T20:58:34.770Z,4.53
2019-03-06T21:01:22.422Z,4.10
2019-03-06T21:04:09.902Z,4.60
2019-03-06T21:06:57.357Z,4.70
2019-03-06T21:09:44.453Z,4.23
2019-03-06T21:12:32.017Z,4.87
2019-03-06T21:15:19.092Z,4.60
2019-03-06T21:18:06.250Z,4.53
2019-03-06T21:20:53.794Z,5.03
2019-03-06T21:23:41.351Z,4.57
2019-03-06T21:26:29.183Z,4.67
2019-03-06T21:29:16.651Z,4.90
2019-03-06T21:32:04.145Z,5.03
2019-03-06T21:34:51.728Z,5.57
2019-03-06T21:37:39.068Z,6.17
2019-03-06T21:40:26.745Z,6.10
2019-03-06T21:43:13.767Z,5.30
2019-03-06T21:46:01.465Z,4.63
2019-03-06T21:48:48.750Z,5.17
2019-03-06T21:51:36.361Z,4.43
2019-03-06T21:54:23.554Z,4.70
2019-03-06T21:57:10.908Z,4.90
2019-03-06T21:59:58.155Z,5.27
2019-03-06T22:02:45.591Z,4.90
2019-03-06T22:05:32.925Z,4.60
2019-03-06T22:08:19.982Z,4.50
2019-03-06T22:11:06.897Z,4.50
2019-03-06T22:13:53.961Z,4.23
2019-03-06T22:16:40.837Z,3.70
2019-03-06T22:19:28.435Z,3.80
2019-03-06T22:22:15.954Z,3.40
2019-03-06T22:25:03.262Z,3.20
2019-03-06T22:27:50.668Z,3.03
2019-03-06T22:30:37.950Z,3.30
2019-03-06T22:33:25.330Z,2.37
2019-03-06T22:36:12.662Z,2.73
2019-03-06T22:38:59.814Z,2.40
2019-03-06T22:41:47.357Z,2.80
2019-03-06T22:44:35.019Z,2.20
2019-03-06T22:47:22.858Z,2.53
2019-03-06T22:50:10.966Z,2.37
2019-03-06T22:52:58.353Z,2.03
2019-03-06T22:55:45.590Z,2.07
2019-03-06T22:58:33.143Z,1.97
2019-03-06T23:01:22.711Z,2.30
2019-03-06T23:04:10.029Z,2.17
2019-03-06T23:06:57.190Z,1.80
2019-03-06T23:09:44.535Z,2.00
2019-03-06T23:12:31.832Z,1.80
2019-03-06T23:15:19.640Z,1.87
2019-03-06T23:18:07.202Z,2.50
2019-03-06T23:20:54.726Z,1.80
2019-03-06T23:23:42.240Z,1.93
2019-03-06T23:26:29.745Z,2.17
2019-03-06T23:29:17.053Z,3.00
2019-03-06T23:32:04.302Z,3.50
2019-03-06T23:34:52.046Z,3.33
2019-03-06T23:37:39.792Z,2.57
2019-03-06T23:40:27.305Z,2.80
2019-03-06T23:43:14.603Z,2.47
2019-03-06T23:46:02.050Z,2.03
2019-03-06T23:48:49.562Z,1.80
2019-03-06T23:51:41.177Z,1.70
2019-03-06T23:54:28.167Z,1.50
2019-03-06T23:57:15.731Z,1.20
